Port Mouton, Canada
Current Conditions -  °F | °C
As of 2:00 PM on Monday 24 Nov 2014 (Local Time) from CYQI Reporting Station
Light Rain Light Rain  
Wind Chill: 55°   Ceiling: 4000
Heat Index: 55°   Visibility: 3mi
Dew Point: 54°   Wind: 24mph
Humidity: 94%   Direction: 160°SSE
Pressure: 29.94"   Gusts: 32mph
Location:  43.93°N, 64.85°W
Report Text: CYQI 241800Z 16021G28KT 3SM -RA BR FEW004 SCT020 OVC040 13/12 A2994 RMK CF1SC3NS5 CF TR SLP140
Loading
Personal Weather Stations






























Interactive Weather Map New forecast layout! Learn more

10-Day Weather Forecast

Advertisements
Track Severe Weather on mobile